createdAt,value
2024-03-07T00:00:19.837Z,7.80
2024-03-07T00:02:50.821Z,7.80
2024-03-07T00:05:21.053Z,7.80
2024-03-07T00:07:50.722Z,7.80
2024-03-07T00:10:24.357Z,7.80
2024-03-07T00:12:52.990Z,7.80
2024-03-07T00:15:22.296Z,7.80
2024-03-07T00:17:50.966Z,7.80
2024-03-07T00:20:21.346Z,7.80
2024-03-07T00:22:50.446Z,7.80
2024-03-07T00:25:21.808Z,7.80
2024-03-07T00:27:53.526Z,7.80
2024-03-07T00:30:22.012Z,7.80
2024-03-07T00:32:50.657Z,7.80
2024-03-07T00:35:20.158Z,7.80
2024-03-07T00:37:48.597Z,7.80
2024-03-07T00:40:17.108Z,7.80
2024-03-07T00:42:46.834Z,7.80
2024-03-07T00:45:15.383Z,7.80
2024-03-07T00:47:43.886Z,7.80
2024-03-07T00:50:12.764Z,7.80
2024-03-07T00:52:41.417Z,7.80
2024-03-07T00:55:10.691Z,7.80
2024-03-07T00:57:39.353Z,7.80
2024-03-07T01:00:15.317Z,7.80
2024-03-07T01:02:45.580Z,7.80
2024-03-07T01:05:15.456Z,7.70
2024-03-07T01:07:44.479Z,7.70
2024-03-07T01:10:13.188Z,7.70
2024-03-07T01:12:41.523Z,7.70
2024-03-07T01:15:13.132Z,7.70
2024-03-07T01:17:42.278Z,7.70
2024-03-07T01:20:12.882Z,7.70
2024-03-07T01:22:41.334Z,7.70
2024-03-07T01:25:09.905Z,7.70
2024-03-07T01:27:38.269Z,7.70
2024-03-07T01:30:09.268Z,7.60
2024-03-07T01:32:39.285Z,7.60
2024-03-07T01:35:09.592Z,7.50
2024-03-07T01:37:38.302Z,7.50
2024-03-07T01:40:07.484Z,7.50
2024-03-07T01:42:36.735Z,7.50
2024-03-07T01:45:05.991Z,7.50
2024-03-07T01:47:34.549Z,7.50
2024-03-07T01:50:05.518Z,7.50
2024-03-07T01:52:34.421Z,7.50
2024-03-07T01:55:04.128Z,7.50
2024-03-07T01:57:32.843Z,7.60
2024-03-07T02:00:07.647Z,7.60
2024-03-07T02:02:37.803Z,7.60
2024-03-07T02:05:08.282Z,7.60
2024-03-07T02:07:36.616Z,7.60
2024-03-07T02:10:06.319Z,7.60
2024-03-07T02:12:35.138Z,7.60
2024-03-07T02:15:03.936Z,7.60
2024-03-07T02:17:33.312Z,7.60
2024-03-07T02:20:01.812Z,7.60
2024-03-07T02:22:32.034Z,7.60
2024-03-07T02:25:00.365Z,7.60
2024-03-07T02:27:28.813Z,7.60
2024-03-07T02:29:57.230Z,7.60
2024-03-07T02:32:28.160Z,7.60
2024-03-07T02:34:56.592Z,7.60
2024-03-07T02:37:25.060Z,7.50
2024-03-07T02:39:54.882Z,7.50
2024-03-07T02:42:23.440Z,7.40
2024-03-07T02:44:54.064Z,7.30
2024-03-07T02:47:25.062Z,7.20
2024-03-07T02:49:53.874Z,7.20
2024-03-07T02:52:22.317Z,7.00
2024-03-07T02:54:50.697Z,6.90
2024-03-07T02:57:20.430Z,6.80
2024-03-07T02:59:49.081Z,6.60
2024-03-07T03:02:17.603Z,6.40
2024-03-07T03:04:46.066Z,6.30
2024-03-07T03:07:14.483Z,6.10
2024-03-07T03:09:44.681Z,6.00
2024-03-07T03:12:13.270Z,5.90
2024-03-07T03:14:43.378Z,5.70
2024-03-07T03:17:12.501Z,5.60
2024-03-07T03:19:41.129Z,5.50
2024-03-07T03:22:10.244Z,5.50
2024-03-07T03:24:38.593Z,5.40
2024-03-07T03:27:07.097Z,5.40
2024-03-07T03:29:35.722Z,5.40
2024-03-07T03:32:07.225Z,5.30
2024-03-07T03:34:35.813Z,5.20
2024-03-07T03:37:06.015Z,5.10
2024-03-07T03:39:34.484Z,5.00
2024-03-07T03:42:02.974Z,4.90
2024-03-07T03:44:33.971Z,4.80
2024-03-07T03:47:05.195Z,4.80
2024-03-07T03:49:35.001Z,4.70
2024-03-07T03:52:03.992Z,4.60
2024-03-07T03:54:32.711Z,4.50
2024-03-07T03:57:01.202Z,4.50
2024-03-07T03:59:29.846Z,4.40
2024-03-07T04:01:58.701Z,4.30
2024-03-07T04:04:27.267Z,4.30
2024-03-07T04:06:57.057Z,4.30
2024-03-07T04:09:29.761Z,4.30
2024-03-07T04:11:59.044Z,4.20
2024-03-07T04:14:27.867Z,4.20
2024-03-07T04:16:58.020Z,4.10
2024-03-07T04:19:26.719Z,4.10
2024-03-07T04:21:56.486Z,4.10
2024-03-07T04:24:24.916Z,4.10
2024-03-07T04:26:54.961Z,4.00
2024-03-07T04:29:23.422Z,4.00
2024-03-07T04:31:52.320Z,4.00
2024-03-07T04:34:21.009Z,4.00
2024-03-07T04:36:49.677Z,4.00
2024-03-07T04:39:27.664Z,3.90
2024-03-07T04:41:58.212Z,3.90
2024-03-07T04:44:26.986Z,3.90
2024-03-07T04:46:56.636Z,3.90
2024-03-07T04:49:25.801Z,3.90
2024-03-07T04:51:54.596Z,3.90
2024-03-07T04:54:25.504Z,3.90
2024-03-07T04:56:55.341Z,3.90
2024-03-07T04:59:24.800Z,3.80
2024-03-07T05:01:54.531Z,3.80
2024-03-07T05:04:25.907Z,3.80
2024-03-07T05:06:54.741Z,3.80
2024-03-07T05:09:26.855Z,3.80
2024-03-07T05:11:56.484Z,3.80
2024-03-07T05:14:27.314Z,3.80
2024-03-07T05:17:06.586Z,3.80
2024-03-07T05:19:35.595Z,3.80
2024-03-07T05:22:06.503Z,3.70
2024-03-07T05:24:44.940Z,3.70
2024-03-07T05:27:13.819Z,3.70
2024-03-07T05:29:42.465Z,3.70
2024-03-07T05:32:25.004Z,3.70
2024-03-07T05:34:55.385Z,3.60
2024-03-07T05:37:24.748Z,3.60
2024-03-07T05:39:54.732Z,3.60
2024-03-07T05:42:23.198Z,3.60
2024-03-07T05:44:51.843Z,3.60
2024-03-07T05:47:20.373Z,3.50
2024-03-07T05:49:49.959Z,3.50
2024-03-07T05:52:18.858Z,3.50
2024-03-07T05:54:47.343Z,3.50
2024-03-07T05:57:17.210Z,3.50
2024-03-07T05:59:46.407Z,3.50
2024-03-07T06:02:16.670Z,3.60
2024-03-07T06:04:46.038Z,3.60
2024-03-07T06:07:14.613Z,3.60
2024-03-07T06:09:45.001Z,3.70
2024-03-07T06:12:20.130Z,3.70
2024-03-07T06:14:57.344Z,3.70
2024-03-07T06:17:28.201Z,3.70
2024-03-07T06:19:56.741Z,3.60
2024-03-07T06:22:25.232Z,3.50
2024-03-07T06:24:54.560Z,3.50
2024-03-07T06:27:38.397Z,3.50
2024-03-07T06:30:10.554Z,3.50
2024-03-07T06:32:39.085Z,3.50
2024-03-07T06:35:08.346Z,3.50
2024-03-07T06:37:36.818Z,3.50
2024-03-07T06:40:10.613Z,3.50
2024-03-07T06:42:38.993Z,3.50
2024-03-07T06:45:09.708Z,3.50
2024-03-07T06:47:38.701Z,3.50
2024-03-07T06:50:15.526Z,3.40
2024-03-07T06:52:49.145Z,3.50
2024-03-07T06:55:19.580Z,3.50
2024-03-07T06:57:48.757Z,3.50
2024-03-07T07:00:20.433Z,3.50
2024-03-07T07:02:49.902Z,3.50
2024-03-07T07:05:19.583Z,3.60
2024-03-07T07:07:47.879Z,3.60
2024-03-07T07:10:18.924Z,3.60
2024-03-07T07:12:48.630Z,3.60
2024-03-07T07:15:22.008Z,3.70
2024-03-07T07:17:51.333Z,3.70
2024-03-07T07:20:20.297Z,3.70
2024-03-07T07:22:49.887Z,3.80
2024-03-07T07:25:18.845Z,3.90
2024-03-07T07:27:48.242Z,3.90
2024-03-07T07:30:19.759Z,3.90
2024-03-07T07:32:48.406Z,4.00
2024-03-07T07:35:17.898Z,4.00
2024-03-07T07:37:50.594Z,4.10
2024-03-07T07:40:21.305Z,4.20
2024-03-07T07:42:52.707Z,4.20
2024-03-07T07:45:24.518Z,4.30
2024-03-07T07:47:54.689Z,4.30
2024-03-07T07:50:25.299Z,4.40
2024-03-07T07:52:55.734Z,4.50
2024-03-07T07:55:25.782Z,4.50
2024-03-07T07:57:55.693Z,4.60
2024-03-07T08:00:30.500Z,4.70
2024-03-07T08:03:01.222Z,4.70
2024-03-07T08:05:31.492Z,4.80
2024-03-07T08:08:01.505Z,4.90
2024-03-07T08:10:31.340Z,4.90
2024-03-07T08:13:00.343Z,5.00
2024-03-07T08:15:31.785Z,5.10
2024-03-07T08:18:01.520Z,5.20
2024-03-07T08:20:30.873Z,5.30
2024-03-07T08:23:00.862Z,5.40
2024-03-07T08:25:31.043Z,5.50
2024-03-07T08:28:00.216Z,5.60
2024-03-07T08:30:31.987Z,5.70
2024-03-07T08:33:03.570Z,5.70
2024-03-07T08:35:32.081Z,5.80
2024-03-07T08:38:00.486Z,5.90
2024-03-07T08:40:34.063Z,6.00
2024-03-07T08:43:03.780Z,6.10
2024-03-07T08:45:35.476Z,6.30
2024-03-07T08:48:06.870Z,6.40
2024-03-07T08:50:36.330Z,6.50
2024-03-07T08:53:05.686Z,6.60
2024-03-07T08:55:34.182Z,6.70
2024-03-07T08:58:02.634Z,6.80
2024-03-07T09:00:31.353Z,7.00
2024-03-07T09:03:04.869Z,7.10
2024-03-07T09:05:35.000Z,7.20
2024-03-07T09:08:04.604Z,7.40
2024-03-07T09:10:33.035Z,7.50
2024-03-07T09:13:01.678Z,7.60
2024-03-07T09:15:30.021Z,7.80
2024-03-07T09:17:59.703Z,7.90
2024-03-07T09:20:29.822Z,8.10
2024-03-07T09:22:58.556Z,8.30
2024-03-07T09:25:27.237Z,8.50
2024-03-07T09:27:56.921Z,8.60
2024-03-07T09:30:28.543Z,8.80
2024-03-07T09:32:57.695Z,9.00
2024-03-07T09:35:26.900Z,9.20
2024-03-07T09:37:57.582Z,9.30
2024-03-07T09:40:27.933Z,9.50
2024-03-07T09:43:01.950Z,9.70
2024-03-07T09:45:33.018Z,9.80
2024-03-07T09:48:03.741Z,9.80
2024-03-07T09:50:32.995Z,9.90
2024-03-07T09:53:05.950Z,10.00
2024-03-07T09:55:34.838Z,10.10
2024-03-07T09:58:08.073Z,10.30
2024-03-07T10:00:38.734Z,10.60
2024-03-07T10:03:10.446Z,10.90
2024-03-07T10:05:42.563Z,11.20
2024-03-07T10:08:14.155Z,11.40
2024-03-07T10:10:42.999Z,11.70
2024-03-07T10:13:11.635Z,11.70
2024-03-07T10:15:41.141Z,11.70
2024-03-07T10:18:11.409Z,11.60
2024-03-07T10:20:41.189Z,11.50
2024-03-07T10:23:11.835Z,11.50
2024-03-07T10:25:40.367Z,11.40
2024-03-07T10:28:12.329Z,11.30
2024-03-07T10:30:45.554Z,11.20
2024-03-07T10:33:15.781Z,11.10
2024-03-07T10:35:44.332Z,11.10
2024-03-07T10:38:15.832Z,11.10
2024-03-07T10:40:44.854Z,11.30
2024-03-07T10:43:16.256Z,11.50
2024-03-07T10:45:48.170Z,11.70
2024-03-07T10:48:24.863Z,11.90
2024-03-07T10:51:03.052Z,12.10
2024-03-07T10:53:36.726Z,12.20
2024-03-07T10:56:29.769Z,12.30
2024-03-07T10:59:05.133Z,12.30
2024-03-07T11:01:35.141Z,12.30
2024-03-07T11:04:06.798Z,12.40
2024-03-07T11:06:37.416Z,12.40
2024-03-07T11:09:12.182Z,12.40
2024-03-07T11:11:44.976Z,12.40
2024-03-07T11:14:16.729Z,12.30
2024-03-07T11:16:46.572Z,12.30
2024-03-07T11:19:29.629Z,12.40
2024-03-07T11:21:58.686Z,12.40
2024-03-07T11:24:33.751Z,12.30
2024-03-07T11:27:07.029Z,12.20
2024-03-07T11:29:44.682Z,12.10
2024-03-07T11:32:15.003Z,12.10
2024-03-07T11:34:47.541Z,12.10
2024-03-07T11:37:24.325Z,12.10
2024-03-07T11:39:57.191Z,12.10
2024-03-07T11:42:27.905Z,12.10
2024-03-07T11:44:58.430Z,12.00
2024-03-07T11:47:30.550Z,11.90
2024-03-07T11:50:00.147Z,11.80
2024-03-07T11:52:29.750Z,11.80
2024-03-07T11:55:05.707Z,11.70
2024-03-07T11:57:34.357Z,11.60
2024-03-07T12:00:09.662Z,11.60
2024-03-07T12:02:42.160Z,11.50
2024-03-07T12:05:10.765Z,11.50
2024-03-07T12:07:39.619Z,11.50
2024-03-07T12:10:11.271Z,11.40
2024-03-07T12:12:40.537Z,11.40
2024-03-07T12:15:19.165Z,11.40
2024-03-07T12:17:50.671Z,11.40
2024-03-07T12:20:32.291Z,11.40
2024-03-07T12:23:04.154Z,11.40
2024-03-07T12:25:35.419Z,11.50
2024-03-07T12:28:12.108Z,11.50
2024-03-07T12:30:52.630Z,11.50
2024-03-07T12:33:22.397Z,11.60
2024-03-07T12:36:01.189Z,11.70
2024-03-07T12:38:36.807Z,11.70
2024-03-07T12:41:08.667Z,11.80
2024-03-07T12:43:37.585Z,11.70
2024-03-07T12:46:10.036Z,11.70
2024-03-07T12:48:40.162Z,11.70
2024-03-07T12:51:09.058Z,11.60
2024-03-07T12:53:39.243Z,11.60
2024-03-07T12:56:10.354Z,11.60
2024-03-07T12:58:38.732Z,11.70
2024-03-07T13:01:07.155Z,11.70
2024-03-07T13:03:36.518Z,11.80
2024-03-07T13:06:06.200Z,11.80
2024-03-07T13:08:35.269Z,11.90
2024-03-07T13:11:04.349Z,11.90
2024-03-07T13:13:34.070Z,11.90
2024-03-07T13:16:02.490Z,11.90
2024-03-07T13:18:36.371Z,11.90
2024-03-07T13:21:08.300Z,11.90
2024-03-07T13:23:37.650Z,11.90
2024-03-07T13:26:10.194Z,11.90
2024-03-07T13:28:40.175Z,11.90
2024-03-07T13:31:08.464Z,12.00
2024-03-07T13:33:38.161Z,12.00
2024-03-07T13:36:08.724Z,12.10
2024-03-07T13:38:37.636Z,12.10
2024-03-07T13:41:06.416Z,12.10
2024-03-07T13:43:35.257Z,12.10
2024-03-07T13:46:05.250Z,12.20
2024-03-07T13:48:38.123Z,12.20
2024-03-07T13:51:09.391Z,12.20
2024-03-07T13:53:48.401Z,12.20
2024-03-07T13:56:37.483Z,12.20
2024-03-07T13:59:39.376Z,12.10
2024-03-07T14:02:27.328Z,12.10
2024-03-07T14:05:30.870Z,12.10
2024-03-07T14:08:25.319Z,12.10
2024-03-07T14:11:33.058Z,12.10
2024-03-07T14:14:22.831Z,12.10
2024-03-07T14:17:24.730Z,12.20
2024-03-07T14:20:44.699Z,12.30
2024-03-07T14:23:23.391Z,12.50
2024-03-07T14:26:07.520Z,12.60
2024-03-07T14:29:02.280Z,12.70
2024-03-07T14:31:31.230Z,12.70
2024-03-07T14:34:11.070Z,12.60
2024-03-07T14:36:49.430Z,12.60
2024-03-07T14:39:23.830Z,12.50
2024-03-07T14:41:55.173Z,12.40
2024-03-07T14:44:24.170Z,12.30
2024-03-07T14:46:57.906Z,12.30
2024-03-07T14:49:28.927Z,12.20
2024-03-07T14:52:00.728Z,12.10
2024-03-07T14:54:31.538Z,12.10
2024-03-07T14:56:59.957Z,12.00
2024-03-07T14:59:29.041Z,11.90
2024-03-07T15:02:00.031Z,11.80
2024-03-07T15:04:33.978Z,11.80
2024-03-07T15:07:04.254Z,11.70
2024-03-07T15:09:35.262Z,11.60
2024-03-07T15:12:05.260Z,11.50
2024-03-07T15:14:38.540Z,11.50
2024-03-07T15:17:08.966Z,11.50
2024-03-07T15:19:38.865Z,11.50
2024-03-07T15:22:08.541Z,11.50
2024-03-07T15:24:38.213Z,11.40
2024-03-07T15:27:07.679Z,11.40
2024-03-07T15:29:37.959Z,11.40
2024-03-07T15:32:10.527Z,11.40
2024-03-07T15:34:41.115Z,11.30
2024-03-07T15:37:10.629Z,11.30
2024-03-07T15:39:40.405Z,11.20
2024-03-07T15:42:11.008Z,11.10
2024-03-07T15:44:44.796Z,11.10
2024-03-07T15:47:13.415Z,10.90
2024-03-07T15:49:43.599Z,10.80
2024-03-07T15:52:14.423Z,10.80
2024-03-07T15:54:43.919Z,11.10
2024-03-07T15:57:12.856Z,11.90
2024-03-07T15:59:46.292Z,12.90
2024-03-07T16:02:16.150Z,14.00
2024-03-07T16:04:47.001Z,14.90
2024-03-07T16:07:15.379Z,15.60
2024-03-07T16:09:43.843Z,16.20
2024-03-07T16:12:12.384Z,16.40
2024-03-07T16:14:40.778Z,16.30
2024-03-07T16:17:10.112Z,16.30
2024-03-07T16:19:38.807Z,16.30
2024-03-07T16:22:08.469Z,16.50
2024-03-07T16:24:41.716Z,16.80
2024-03-07T16:27:12.711Z,17.00
2024-03-07T16:29:41.197Z,17.20
2024-03-07T16:32:12.759Z,17.40
2024-03-07T16:34:44.038Z,17.40
2024-03-07T16:37:14.863Z,17.40
2024-03-07T16:39:45.037Z,17.30
2024-03-07T16:42:16.054Z,17.10
2024-03-07T16:44:44.627Z,16.80
2024-03-07T16:47:13.075Z,16.30
2024-03-07T16:49:42.083Z,15.70
2024-03-07T16:52:10.831Z,15.00
2024-03-07T16:54:41.333Z,14.30
2024-03-07T16:57:10.572Z,13.70
2024-03-07T16:59:41.007Z,13.00
2024-03-07T17:02:11.205Z,12.40
2024-03-07T17:04:39.569Z,11.80
2024-03-07T17:07:07.899Z,11.30
2024-03-07T17:09:36.372Z,10.80
2024-03-07T17:12:07.790Z,10.40
2024-03-07T17:14:38.558Z,10.00
2024-03-07T17:17:08.063Z,9.60
2024-03-07T17:19:38.886Z,9.30
2024-03-07T17:22:08.092Z,9.00
2024-03-07T17:24:36.469Z,8.70
2024-03-07T17:27:07.324Z,8.50
2024-03-07T17:29:36.666Z,8.30
2024-03-07T17:32:06.667Z,8.10
2024-03-07T17:34:35.168Z,8.00
2024-03-07T17:37:06.129Z,7.80
2024-03-07T17:39:35.100Z,7.60
2024-03-07T17:42:12.269Z,7.50
2024-03-07T17:44:41.263Z,7.30
2024-03-07T17:47:11.886Z,7.10
2024-03-07T17:49:41.182Z,6.90
2024-03-07T17:52:14.120Z,6.70
2024-03-07T17:54:47.985Z,6.60
2024-03-07T17:57:19.146Z,6.40
2024-03-07T17:59:48.200Z,6.30
2024-03-07T18:02:19.234Z,6.20
2024-03-07T18:04:51.164Z,6.00
2024-03-07T18:07:22.834Z,5.90
2024-03-07T18:09:54.837Z,5.80
2024-03-07T18:12:26.416Z,5.70
2024-03-07T18:15:08.665Z,5.60
2024-03-07T18:17:43.641Z,5.60
2024-03-07T18:20:12.677Z,5.50
2024-03-07T18:22:42.329Z,5.40
2024-03-07T18:25:11.114Z,5.30
2024-03-07T18:27:40.729Z,5.20
2024-03-07T18:30:13.005Z,5.10
2024-03-07T18:32:43.910Z,5.10
2024-03-07T18:35:13.102Z,5.00
2024-03-07T18:37:41.864Z,5.00
2024-03-07T18:40:16.086Z,4.90
2024-03-07T18:42:46.960Z,4.80
2024-03-07T18:45:20.153Z,4.80
2024-03-07T18:47:52.758Z,4.70
2024-03-07T18:50:23.370Z,4.60
2024-03-07T18:52:53.292Z,4.50
2024-03-07T18:55:30.696Z,4.50
2024-03-07T18:58:03.109Z,4.40
2024-03-07T19:00:38.215Z,4.30
2024-03-07T19:03:09.563Z,4.30
2024-03-07T19:05:39.686Z,4.20
2024-03-07T19:08:16.551Z,4.10
2024-03-07T19:10:46.600Z,4.00
2024-03-07T19:13:17.820Z,4.00
2024-03-07T19:15:47.210Z,3.90
2024-03-07T19:18:15.776Z,3.90
2024-03-07T19:20:45.469Z,3.80
2024-03-07T19:23:14.675Z,3.80
2024-03-07T19:25:43.533Z,3.70
2024-03-07T19:28:14.836Z,3.70
2024-03-07T19:30:46.780Z,3.60
2024-03-07T19:33:17.264Z,3.60
2024-03-07T19:35:47.495Z,3.50
2024-03-07T19:38:16.180Z,3.50
2024-03-07T19:40:44.930Z,3.50
2024-03-07T19:43:13.454Z,3.40
2024-03-07T19:45:45.216Z,3.40
2024-03-07T19:48:14.590Z,3.30
2024-03-07T19:50:44.082Z,3.30
2024-03-07T19:53:16.478Z,3.20
2024-03-07T19:55:47.740Z,3.20
2024-03-07T19:58:16.763Z,3.20
2024-03-07T20:00:48.767Z,3.10
2024-03-07T20:03:22.799Z,3.10
2024-03-07T20:05:53.624Z,3.00
2024-03-07T20:08:28.928Z,3.10
2024-03-07T20:10:59.498Z,3.20
2024-03-07T20:13:28.452Z,3.30
2024-03-07T20:16:01.575Z,3.30
2024-03-07T20:18:32.803Z,3.50
2024-03-07T20:21:03.953Z,3.50
2024-03-07T20:23:34.791Z,3.60
2024-03-07T20:26:05.149Z,3.70
2024-03-07T20:28:33.767Z,3.70
2024-03-07T20:31:03.540Z,3.70
2024-03-07T20:33:32.164Z,3.70
2024-03-07T20:36:03.930Z,3.80
2024-03-07T20:38:33.372Z,3.80
2024-03-07T20:41:06.231Z,3.80
2024-03-07T20:43:35.218Z,3.70
2024-03-07T20:46:07.406Z,3.60
2024-03-07T20:48:38.253Z,3.50
2024-03-07T20:51:11.740Z,3.30
2024-03-07T20:53:41.079Z,3.20
2024-03-07T20:56:09.773Z,3.00
2024-03-07T20:58:38.288Z,2.90
2024-03-07T21:01:13.214Z,2.80
2024-03-07T21:03:43.044Z,2.80
2024-03-07T21:06:13.004Z,2.70
2024-03-07T21:08:43.661Z,2.70
2024-03-07T21:11:13.190Z,2.60
2024-03-07T21:13:43.120Z,2.60
2024-03-07T21:16:13.541Z,2.60
2024-03-07T21:18:42.903Z,2.50
2024-03-07T21:21:12.723Z,2.50
2024-03-07T21:23:41.840Z,2.40
2024-03-07T21:26:13.146Z,2.40
2024-03-07T21:28:43.853Z,2.40
2024-03-07T21:31:22.471Z,2.30
2024-03-07T21:33:52.071Z,2.30
2024-03-07T21:36:20.916Z,2.20
2024-03-07T21:38:49.312Z,2.20
2024-03-07T21:41:18.237Z,2.20
2024-03-07T21:43:47.178Z,2.20
2024-03-07T21:46:17.334Z,2.20
2024-03-07T21:48:47.295Z,2.10
2024-03-07T21:51:15.880Z,2.10
2024-03-07T21:53:46.097Z,2.10
2024-03-07T21:56:14.880Z,2.10
2024-03-07T21:58:43.757Z,2.10
2024-03-07T22:01:13.370Z,2.20
2024-03-07T22:03:44.455Z,2.20
2024-03-07T22:06:13.997Z,2.20
2024-03-07T22:08:43.098Z,2.10
2024-03-07T22:11:19.994Z,2.10
2024-03-07T22:13:53.131Z,2.10
2024-03-07T22:16:24.172Z,2.10
2024-03-07T22:19:04.120Z,2.10
2024-03-07T22:21:36.292Z,2.00
2024-03-07T22:24:12.076Z,2.00
2024-03-07T22:26:43.785Z,2.00
2024-03-07T22:29:16.220Z,2.00
2024-03-07T22:31:46.678Z,1.90
2024-03-07T22:34:19.071Z,1.90
2024-03-07T22:36:50.120Z,1.90
2024-03-07T22:39:22.353Z,1.90
2024-03-07T22:41:53.279Z,1.80
2024-03-07T22:44:26.188Z,1.80
2024-03-07T22:47:01.993Z,1.80
2024-03-07T22:49:33.773Z,1.70
2024-03-07T22:52:05.484Z,1.70
2024-03-07T22:54:37.966Z,1.70
2024-03-07T22:57:07.037Z,1.70
2024-03-07T22:59:37.280Z,1.70
2024-03-07T23:02:06.271Z,1.70
2024-03-07T23:04:37.659Z,1.70
2024-03-07T23:07:07.046Z,1.70
2024-03-07T23:09:35.565Z,1.70
2024-03-07T23:12:04.468Z,1.70
2024-03-07T23:14:47.950Z,1.70
2024-03-07T23:17:16.813Z,1.70
2024-03-07T23:19:47.835Z,1.70
2024-03-07T23:22:16.165Z,1.70
2024-03-07T23:24:44.919Z,1.70
2024-03-07T23:27:14.059Z,1.70
2024-03-07T23:29:45.866Z,1.70
2024-03-07T23:32:16.872Z,1.60
2024-03-07T23:34:47.703Z,1.60
2024-03-07T23:37:17.473Z,1.60
2024-03-07T23:39:45.873Z,1.60
2024-03-07T23:42:14.225Z,1.50
2024-03-07T23:44:42.700Z,1.50
2024-03-07T23:47:11.136Z,1.50
2024-03-07T23:49:39.672Z,1.40
2024-03-07T23:52:08.218Z,1.40
2024-03-07T23:54:38.432Z,1.40
2024-03-07T23:57:06.936Z,1.40
2024-03-07T23:59:35.953Z,1.40
